createdAt,value
2023-03-30T00:01:38.472Z,74.70
2023-03-30T00:04:27.458Z,76.10
2023-03-30T00:07:13.369Z,76.70
2023-03-30T00:10:04.519Z,77.10
2023-03-30T00:12:51.065Z,77.00
2023-03-30T00:15:36.837Z,77.10
2023-03-30T00:18:25.176Z,77.00
2023-03-30T00:21:11.301Z,76.90
2023-03-30T00:23:58.074Z,76.70
2023-03-30T00:26:43.629Z,76.20
2023-03-30T00:29:29.452Z,76.20
2023-03-30T00:32:15.082Z,76.10
2023-03-30T00:35:01.676Z,75.90
2023-03-30T00:37:49.502Z,76.00
2023-03-30T00:40:35.967Z,75.90
2023-03-30T00:43:24.023Z,75.80
2023-03-30T00:46:09.804Z,75.90
2023-03-30T00:48:58.148Z,75.90
2023-03-30T00:51:43.906Z,75.70
2023-03-30T00:54:32.188Z,75.50
2023-03-30T00:57:19.344Z,75.50
2023-03-30T01:00:08.788Z,75.50
2023-03-30T01:02:59.530Z,75.40
2023-03-30T01:05:46.173Z,75.70
2023-03-30T01:08:35.533Z,75.80
2023-03-30T01:11:21.531Z,75.70
2023-03-30T01:14:10.114Z,75.50
2023-03-30T01:17:13.749Z,75.40
2023-03-30T01:20:28.610Z,75.30
2023-03-30T01:23:27.464Z,75.00
2023-03-30T01:26:31.780Z,74.90
2023-03-30T01:29:49.159Z,74.70
2023-03-30T01:33:23.108Z,74.50
2023-03-30T01:36:38.903Z,74.10
2023-03-30T01:39:57.417Z,74.30
2023-03-30T01:43:13.098Z,74.50
2023-03-30T01:46:03.254Z,74.40
2023-03-30T01:49:08.789Z,74.30
2023-03-30T01:52:08.592Z,74.50
2023-03-30T01:55:25.865Z,74.60
2023-03-30T01:58:21.251Z,75.10
2023-03-30T02:01:08.242Z,75.60
2023-03-30T02:03:57.721Z,76.00
2023-03-30T02:06:50.750Z,76.80
2023-03-30T02:09:41.447Z,77.80
2023-03-30T02:12:30.129Z,77.70
2023-03-30T02:15:17.751Z,77.80
2023-03-30T02:18:03.559Z,78.00
2023-03-30T02:20:51.997Z,78.40
2023-03-30T02:23:40.972Z,78.50
2023-03-30T02:26:27.584Z,77.90
2023-03-30T02:29:20.848Z,78.00
2023-03-30T02:32:09.691Z,78.10
2023-03-30T02:34:58.867Z,78.20
2023-03-30T02:38:24.553Z,78.20
2023-03-30T02:42:01.475Z,78.70
2023-03-30T02:44:56.131Z,78.80
2023-03-30T02:47:58.052Z,79.00
2023-03-30T02:50:51.739Z,79.20
2023-03-30T02:54:03.168Z,79.40
2023-03-30T02:57:43.709Z,79.50
2023-03-30T03:01:06.484Z,79.40
2023-03-30T03:04:05.109Z,79.70
2023-03-30T03:06:59.199Z,80.60
2023-03-30T03:09:45.062Z,81.00
2023-03-30T03:12:30.936Z,80.90
2023-03-30T03:15:16.493Z,81.20
2023-03-30T03:18:19.318Z,81.40
2023-03-30T03:21:05.260Z,81.70
2023-03-30T03:23:51.584Z,81.90
2023-03-30T03:26:40.065Z,82.10
2023-03-30T03:29:25.481Z,81.90
2023-03-30T03:32:11.204Z,81.90
2023-03-30T03:35:02.226Z,81.90
2023-03-30T03:37:47.820Z,81.80
2023-03-30T03:40:33.392Z,82.70
2023-03-30T03:43:19.868Z,82.50
2023-03-30T03:46:05.382Z,82.70
2023-03-30T03:48:51.284Z,83.00
2023-03-30T03:51:37.223Z,82.90
2023-03-30T03:54:22.534Z,83.00
2023-03-30T03:57:10.306Z,83.00
2023-03-30T03:59:57.960Z,82.90
2023-03-30T04:02:44.665Z,82.80
2023-03-30T04:05:31.756Z,82.90
2023-03-30T04:08:19.266Z,82.90
2023-03-30T04:11:07.909Z,83.00
2023-03-30T04:14:22.640Z,82.20
2023-03-30T04:17:35.023Z,85.90
2023-03-30T04:20:39.781Z,89.20
2023-03-30T04:23:52.134Z,90.90
2023-03-30T04:26:37.789Z,91.90
2023-03-30T04:29:48.479Z,92.40
2023-03-30T04:33:04.052Z,93.20
2023-03-30T04:36:13.694Z,93.60
2023-03-30T04:39:13.855Z,94.10
2023-03-30T04:42:20.013Z,94.30
2023-03-30T04:45:30.242Z,94.70
2023-03-30T04:48:34.685Z,94.90
2023-03-30T04:51:30.244Z,95.00
2023-03-30T04:54:51.154Z,95.00
2023-03-30T04:57:39.636Z,95.10
2023-03-30T05:00:44.693Z,95.20
2023-03-30T05:03:49.168Z,95.40
2023-03-30T05:06:57.981Z,95.20
2023-03-30T05:10:02.875Z,95.20
2023-03-30T05:13:07.055Z,95.00
2023-03-30T05:16:09.264Z,95.00
2023-03-30T05:19:06.851Z,94.80
2023-03-30T05:22:30.969Z,94.80
2023-03-30T05:25:39.068Z,94.60
2023-03-30T05:28:44.685Z,94.50
2023-03-30T05:31:48.739Z,94.30
2023-03-30T05:35:05.741Z,94.30
2023-03-30T05:38:02.691Z,94.40
2023-03-30T05:41:00.280Z,94.40
2023-03-30T05:43:52.858Z,94.00
2023-03-30T05:47:00.424Z,94.00
2023-03-30T05:49:53.780Z,93.90
2023-03-30T05:52:45.049Z,93.50
2023-03-30T05:56:02.725Z,93.40
2023-03-30T05:59:10.170Z,93.30
2023-03-30T06:02:07.792Z,93.20
2023-03-30T06:04:54.710Z,93.20
2023-03-30T06:07:40.501Z,93.00
2023-03-30T06:10:26.666Z,92.80
2023-03-30T06:13:13.542Z,92.50
2023-03-30T06:16:05.795Z,92.50
2023-03-30T06:18:55.688Z,92.10
2023-03-30T06:21:42.833Z,92.00
2023-03-30T06:24:43.037Z,91.70
2023-03-30T06:27:31.767Z,91.50
2023-03-30T06:30:18.147Z,91.50
2023-03-30T06:33:08.011Z,91.40
2023-03-30T06:36:00.877Z,91.30
2023-03-30T06:38:47.028Z,91.10
2023-03-30T06:41:34.942Z,91.00
2023-03-30T06:44:23.876Z,91.10
2023-03-30T06:47:10.290Z,91.10
2023-03-30T06:49:58.985Z,91.00
2023-03-30T06:52:47.210Z,90.90
2023-03-30T06:55:33.368Z,91.00
2023-03-30T06:58:19.145Z,90.90
2023-03-30T07:01:12.954Z,90.80
2023-03-30T07:04:30.606Z,90.60
2023-03-30T07:07:31.014Z,90.50
2023-03-30T07:10:16.298Z,90.60
2023-03-30T07:13:03.485Z,90.50
2023-03-30T07:15:50.132Z,90.50
2023-03-30T07:18:36.036Z,90.30
2023-03-30T07:21:23.426Z,90.10
2023-03-30T07:24:08.877Z,89.70
2023-03-30T07:26:54.880Z,89.40
2023-03-30T07:29:40.763Z,89.00
2023-03-30T07:32:27.306Z,88.70
2023-03-30T07:35:15.966Z,88.00
2023-03-30T07:38:03.769Z,88.20
2023-03-30T07:40:54.925Z,88.10
2023-03-30T07:43:42.548Z,88.20
2023-03-30T07:46:28.136Z,88.20
2023-03-30T07:49:15.247Z,88.40
2023-03-30T07:52:01.443Z,88.60
2023-03-30T07:54:56.281Z,88.30
2023-03-30T07:57:49.950Z,87.70
2023-03-30T08:00:35.661Z,87.70
2023-03-30T08:03:39.967Z,87.90
2023-03-30T08:06:25.821Z,88.20
2023-03-30T08:09:17.317Z,87.60
2023-03-30T08:12:03.922Z,87.60
2023-03-30T08:14:50.153Z,87.80
2023-03-30T08:17:35.899Z,88.00
2023-03-30T08:20:21.546Z,86.70
2023-03-30T08:23:08.020Z,86.20
2023-03-30T08:26:00.002Z,85.70
2023-03-30T08:28:46.265Z,86.50
2023-03-30T08:31:32.992Z,86.20
2023-03-30T08:34:21.029Z,85.90
2023-03-30T08:37:06.256Z,85.50
2023-03-30T08:39:52.462Z,85.30
2023-03-30T08:42:56.943Z,85.70
2023-03-30T08:45:43.458Z,86.90
2023-03-30T08:48:33.593Z,86.70
2023-03-30T08:51:30.538Z,87.20
2023-03-30T08:54:19.453Z,86.80
2023-03-30T08:57:32.604Z,86.30
2023-03-30T09:00:25.180Z,86.30
2023-03-30T09:03:28.757Z,86.30
2023-03-30T09:06:46.240Z,85.40
2023-03-30T09:09:37.831Z,84.40
2023-03-30T09:12:44.684Z,83.90
2023-03-30T09:15:51.949Z,82.60
2023-03-30T09:18:39.442Z,80.90
2023-03-30T09:21:29.680Z,80.20
2023-03-30T09:24:23.516Z,79.00
2023-03-30T09:27:43.207Z,79.70
2023-03-30T09:30:43.135Z,79.00
2023-03-30T09:33:54.623Z,78.90
2023-03-30T09:36:54.475Z,78.90
2023-03-30T09:39:41.502Z,78.00
2023-03-30T09:42:39.466Z,78.60
2023-03-30T09:45:33.449Z,79.50
2023-03-30T09:48:19.963Z,78.70
2023-03-30T09:51:29.798Z,78.70
2023-03-30T09:54:23.841Z,78.60
2023-03-30T09:57:30.101Z,79.10
2023-03-30T10:00:39.384Z,78.80
2023-03-30T10:03:25.152Z,78.20
2023-03-30T10:06:16.215Z,78.80
2023-03-30T10:09:06.272Z,77.80
2023-03-30T10:11:54.521Z,75.50
2023-03-30T10:14:40.245Z,75.00
2023-03-30T10:17:29.872Z,74.20
2023-03-30T10:20:17.741Z,73.10
2023-03-30T10:23:15.936Z,73.20
2023-03-30T10:26:10.395Z,72.80
2023-03-30T10:29:01.094Z,73.00
2023-03-30T10:31:49.858Z,72.80
2023-03-30T10:34:41.071Z,73.80
2023-03-30T10:37:35.890Z,73.60
2023-03-30T10:40:27.212Z,72.90
2023-03-30T10:43:20.043Z,72.60
2023-03-30T10:46:19.999Z,72.50
2023-03-30T10:49:42.396Z,71.00
2023-03-30T10:52:58.929Z,71.20
2023-03-30T10:56:15.316Z,68.80
2023-03-30T10:59:38.270Z,68.70
2023-03-30T11:02:36.167Z,68.10
2023-03-30T11:05:33.144Z,67.40
2023-03-30T11:08:31.218Z,67.50
2023-03-30T11:11:21.508Z,67.70
2023-03-30T11:14:13.591Z,67.40
2023-03-30T11:17:09.197Z,68.00
2023-03-30T11:20:19.206Z,67.70
2023-03-30T11:23:29.004Z,68.20
2023-03-30T11:26:22.907Z,69.00
2023-03-30T11:29:17.836Z,68.20
2023-03-30T11:32:06.801Z,68.90
2023-03-30T11:35:14.980Z,69.00
2023-03-30T11:38:17.903Z,69.80
2023-03-30T11:41:17.486Z,69.60
2023-03-30T11:44:03.191Z,70.30
2023-03-30T11:47:31.819Z,71.70
2023-03-30T11:50:52.579Z,74.80
2023-03-30T11:53:47.327Z,77.90
2023-03-30T11:57:03.586Z,79.20
2023-03-30T12:00:16.525Z,80.70
2023-03-30T12:03:35.567Z,81.20
2023-03-30T12:06:33.902Z,80.50
2023-03-30T12:09:34.151Z,80.20
2023-03-30T12:12:32.704Z,79.70
2023-03-30T12:15:40.433Z,80.60
2023-03-30T12:18:58.092Z,81.10
2023-03-30T12:22:08.983Z,82.10
2023-03-30T12:25:00.278Z,82.90
2023-03-30T12:27:58.552Z,84.20
2023-03-30T12:30:59.394Z,84.60
2023-03-30T12:33:51.558Z,85.10
2023-03-30T12:36:39.909Z,85.10
2023-03-30T12:39:32.860Z,86.10
2023-03-30T12:42:27.474Z,86.80
2023-03-30T12:45:28.639Z,88.00
2023-03-30T12:48:37.711Z,88.90
2023-03-30T12:51:31.985Z,88.60
2023-03-30T12:54:37.758Z,87.70
2023-03-30T12:57:46.856Z,86.70
2023-03-30T13:00:51.206Z,86.20
2023-03-30T13:03:52.753Z,82.90
2023-03-30T13:06:48.657Z,79.00
2023-03-30T13:09:56.187Z,76.70
2023-03-30T13:12:42.816Z,77.10
2023-03-30T13:15:40.387Z,74.90
2023-03-30T13:18:41.011Z,74.70
2023-03-30T13:21:26.755Z,72.10
2023-03-30T13:24:26.440Z,69.70
2023-03-30T13:27:22.580Z,64.50
2023-03-30T13:30:08.015Z,63.30
2023-03-30T13:33:15.688Z,61.20
2023-03-30T13:36:06.987Z,59.70
2023-03-30T13:39:06.721Z,61.20
2023-03-30T13:42:16.913Z,61.60
2023-03-30T13:45:27.153Z,59.00
2023-03-30T13:48:48.607Z,57.20
2023-03-30T13:51:36.311Z,56.50
2023-03-30T13:54:27.297Z,54.20
2023-03-30T13:57:34.637Z,54.70
2023-03-30T14:00:28.327Z,55.40
2023-03-30T14:03:32.566Z,57.00
2023-03-30T14:06:23.293Z,57.20
2023-03-30T14:09:14.347Z,55.70
2023-03-30T14:12:02.594Z,55.00
2023-03-30T14:14:50.215Z,53.80
2023-03-30T14:17:35.691Z,51.60
2023-03-30T14:20:57.178Z,49.20
2023-03-30T14:24:03.914Z,49.60
2023-03-30T14:26:50.266Z,49.10
2023-03-30T14:29:47.520Z,49.70
2023-03-30T14:32:33.179Z,49.70
2023-03-30T14:35:18.755Z,49.40
2023-03-30T14:38:16.311Z,47.00
2023-03-30T14:41:07.161Z,47.90
2023-03-30T14:44:06.315Z,49.50
2023-03-30T14:46:53.485Z,51.80
2023-03-30T14:49:43.393Z,50.90
2023-03-30T14:52:38.500Z,53.10
2023-03-30T14:55:26.418Z,51.30
2023-03-30T14:58:15.473Z,52.40
2023-03-30T15:01:16.513Z,53.00
2023-03-30T15:04:15.429Z,52.60
2023-03-30T15:07:01.101Z,52.40
2023-03-30T15:09:47.617Z,51.00
2023-03-30T15:12:40.244Z,49.40
2023-03-30T15:15:31.212Z,48.20
2023-03-30T15:18:21.980Z,45.70
2023-03-30T15:21:13.738Z,44.90
2023-03-30T15:24:00.322Z,42.20
2023-03-30T15:26:49.367Z,41.60
2023-03-30T15:29:35.012Z,41.10
2023-03-30T15:32:39.073Z,40.80
2023-03-30T15:35:28.969Z,40.30
2023-03-30T15:38:17.326Z,38.60
2023-03-30T15:41:11.952Z,39.50
2023-03-30T15:44:08.865Z,38.20
2023-03-30T15:46:58.625Z,38.10
2023-03-30T15:49:50.352Z,38.80
2023-03-30T15:52:37.458Z,39.40
2023-03-30T15:55:28.885Z,38.60
2023-03-30T15:58:20.733Z,37.90
2023-03-30T16:01:08.004Z,37.60
2023-03-30T16:03:56.976Z,38.40
2023-03-30T16:06:44.614Z,38.50
2023-03-30T16:09:31.639Z,38.50
2023-03-30T16:12:25.452Z,38.90
2023-03-30T16:15:19.693Z,39.20
2023-03-30T16:18:05.070Z,39.60
2023-03-30T16:20:51.319Z,39.20
2023-03-30T16:23:40.244Z,39.30
2023-03-30T16:26:25.805Z,39.70
2023-03-30T16:29:21.623Z,39.50
2023-03-30T16:32:07.682Z,39.30
2023-03-30T16:34:54.541Z,40.10
2023-03-30T16:37:40.710Z,40.50
2023-03-30T16:40:40.866Z,41.10
2023-03-30T16:43:27.840Z,41.50
2023-03-30T16:46:16.607Z,42.50
2023-03-30T16:49:01.888Z,42.80
2023-03-30T16:51:48.043Z,43.10
2023-03-30T16:54:36.428Z,43.50
2023-03-30T16:57:21.850Z,44.10
2023-03-30T17:00:22.557Z,44.30
2023-03-30T17:03:09.501Z,44.80
2023-03-30T17:05:55.389Z,45.60
2023-03-30T17:08:43.218Z,46.10
2023-03-30T17:11:29.514Z,46.70
2023-03-30T17:14:16.500Z,46.70
2023-03-30T17:17:02.329Z,48.20
2023-03-30T17:19:47.934Z,48.30
2023-03-30T17:22:33.623Z,49.00
2023-03-30T17:25:26.250Z,48.80
2023-03-30T17:28:27.207Z,49.20
2023-03-30T17:31:19.107Z,49.00
2023-03-30T17:34:06.659Z,50.20
2023-03-30T17:36:52.582Z,51.40
2023-03-30T17:39:37.869Z,52.10
2023-03-30T17:42:23.341Z,53.60
2023-03-30T17:45:09.491Z,55.70
2023-03-30T17:47:55.047Z,57.20
2023-03-30T17:50:43.724Z,58.80
2023-03-30T17:53:29.376Z,60.60
2023-03-30T17:56:14.931Z,63.00
2023-03-30T17:59:00.618Z,65.10
2023-03-30T18:01:45.971Z,67.20
2023-03-30T18:04:31.422Z,68.70
2023-03-30T18:07:24.551Z,70.40
2023-03-30T18:10:36.540Z,71.70
2023-03-30T18:13:26.722Z,73.00
2023-03-30T18:16:17.989Z,74.20
2023-03-30T18:19:03.774Z,75.20
2023-03-30T18:21:48.773Z,76.20
2023-03-30T18:24:34.561Z,76.90
2023-03-30T18:27:20.069Z,77.70
2023-03-30T18:30:24.957Z,78.40
2023-03-30T18:33:10.563Z,79.20
2023-03-30T18:36:04.992Z,80.00
2023-03-30T18:38:50.765Z,80.60
2023-03-30T18:41:36.704Z,81.40
2023-03-30T18:44:22.227Z,81.90
2023-03-30T18:47:09.935Z,82.20
2023-03-30T18:49:55.429Z,82.40
2023-03-30T18:53:05.846Z,82.40
2023-03-30T18:55:54.927Z,82.90
2023-03-30T18:58:45.654Z,83.10
2023-03-30T19:01:32.017Z,83.50
2023-03-30T19:04:17.468Z,83.50
2023-03-30T19:07:03.046Z,83.80
2023-03-30T19:09:53.120Z,84.40
2023-03-30T19:12:40.388Z,85.20
2023-03-30T19:15:29.314Z,84.00
2023-03-30T19:18:15.698Z,84.40
2023-03-30T19:21:01.138Z,84.70
2023-03-30T19:23:51.866Z,84.70
2023-03-30T19:26:37.375Z,84.80
2023-03-30T19:29:23.437Z,84.70
2023-03-30T19:32:09.328Z,84.80
2023-03-30T19:34:56.109Z,85.20
2023-03-30T19:37:42.044Z,84.80
2023-03-30T19:40:27.895Z,85.00
2023-03-30T19:43:13.197Z,84.70
2023-03-30T19:45:58.834Z,84.70
2023-03-30T19:48:44.138Z,85.00
2023-03-30T19:51:30.173Z,85.20
2023-03-30T19:54:16.000Z,85.50
2023-03-30T19:57:01.902Z,85.50
2023-03-30T19:59:48.850Z,85.70
2023-03-30T20:02:47.407Z,85.80
2023-03-30T20:05:33.028Z,86.00
2023-03-30T20:11:08.037Z,86.00
2023-03-30T20:13:53.905Z,86.60
2023-03-30T20:16:39.333Z,87.10
2023-03-30T20:19:29.806Z,87.40
2023-03-30T20:22:15.417Z,87.50
2023-03-30T20:25:00.775Z,87.50
2023-03-30T20:27:46.817Z,87.80
2023-03-30T20:30:32.115Z,87.70
2023-03-30T20:33:18.803Z,88.30
2023-03-30T20:36:06.294Z,88.50
2023-03-30T20:38:51.992Z,88.50
2023-03-30T20:41:40.659Z,88.70
2023-03-30T20:44:32.610Z,88.90
2023-03-30T20:47:23.127Z,89.10
2023-03-30T20:50:10.299Z,89.30
2023-03-30T20:52:56.151Z,90.20
2023-03-30T20:55:43.086Z,90.00
2023-03-30T20:58:29.350Z,89.80
2023-03-30T21:01:25.612Z,89.90
2023-03-30T21:04:11.709Z,89.80
2023-03-30T21:06:57.271Z,89.40
2023-03-30T21:09:42.581Z,89.20
2023-03-30T21:12:29.239Z,89.50
2023-03-30T21:15:15.261Z,89.20
2023-03-30T21:18:00.809Z,88.90
2023-03-30T21:20:56.470Z,88.80
2023-03-30T21:23:45.180Z,89.60
2023-03-30T21:26:31.232Z,88.90
2023-03-30T21:29:16.902Z,89.20
2023-03-30T21:32:02.225Z,89.10
2023-03-30T21:34:49.632Z,89.60
2023-03-30T21:37:35.148Z,89.80
2023-03-30T21:40:24.526Z,89.50
2023-03-30T21:43:09.961Z,89.40
2023-03-30T21:46:01.209Z,89.50
2023-03-30T21:48:51.805Z,89.50
2023-03-30T21:51:38.659Z,89.70
2023-03-30T21:54:24.136Z,90.00
2023-03-30T21:57:09.522Z,90.10
2023-03-30T21:59:55.256Z,90.10
2023-03-30T22:02:43.716Z,90.20
2023-03-30T22:05:29.265Z,90.20
2023-03-30T22:08:16.835Z,90.20
2023-03-30T22:11:08.329Z,90.40
2023-03-30T22:13:58.242Z,90.40
2023-03-30T22:16:43.818Z,90.50
2023-03-30T22:19:31.935Z,90.40
2023-03-30T22:22:17.552Z,90.70
2023-03-30T22:25:03.252Z,90.40
2023-03-30T22:27:49.040Z,90.40
2023-03-30T22:30:35.510Z,90.50
2023-03-30T22:33:21.206Z,90.50
2023-03-30T22:36:15.231Z,90.50
2023-03-30T22:39:04.449Z,90.50
2023-03-30T22:41:52.697Z,90.60
2023-03-30T22:44:41.373Z,91.00
2023-03-30T22:47:27.057Z,90.90
2023-03-30T22:50:12.480Z,91.00
2023-03-30T22:52:58.175Z,91.10
2023-03-30T22:55:46.319Z,91.10
2023-03-30T22:58:31.734Z,91.20
2023-03-30T23:01:19.854Z,91.30
2023-03-30T23:04:06.594Z,91.20
2023-03-30T23:06:52.099Z,91.40
2023-03-30T23:09:38.643Z,91.40
2023-03-30T23:12:25.200Z,91.20
2023-03-30T23:26:13.857Z,91.40
2023-03-30T23:29:01.973Z,91.50
2023-03-30T23:31:51.962Z,91.60
2023-03-30T23:34:37.595Z,91.80
2023-03-30T23:37:23.143Z,91.90
2023-03-30T23:40:09.307Z,91.90
2023-03-30T23:42:57.273Z,91.90
2023-03-30T23:45:43.497Z,92.00
2023-03-30T23:48:29.277Z,92.10
2023-03-30T23:51:14.231Z,92.10
2023-03-30T23:54:06.234Z,92.10
2023-03-30T23:56:57.370Z,92.20
2023-03-30T23:59:42.457Z,92.20
